PWSweather.com
Personal Weather Stations
Station Observations
CAPEBRETON
Mira Road, Sydney, NS

Mira RoadSydney, NS

Lat: 46.1207292, Lon: -60.1594642

Elevation: 175

Station Type: LaCrosse Weather Pro Center 2800 Series

http://pwscapebreton.weebly.com/

Latest ConditionsUpdated 11:14:52 AM GMT-04:56 Thursday, Jul 24, 2014
Currently Today's Max Today's Min Today's Average
Temperature 83.9°F28.8°C 83.9°F28.8°C 63.0°F17.2°C 71.3°F21.8°C
Dew Point 68.0°F20.0°C 68.2°F20.1°C 59.5°F15.3°C 62.9°F17.2°C
Winds 1.8 mph N2.9 kmh N 3.8 mph SW6.1 kmh SW - 1.7 mph 2.7 kmh
Wind Gusts 5.1 mph8.2 kmh 7.6 mph12.2 kmh - -
Humidity 59% 89% 58% 76%
Pressure 29.80 in1009.1 mb 29.81 in1009.5 mb 29.75 in1007.5 mb -
Hour Temp Dew Point Humidity Winds Wind Gusts Pressure Precip Precip Rate Daily Precip Total
11:14 AM 83.9°F28.8°C 68.0°F20.0°C 59% 1.8 mph N2.9 kmh N 5.1 mph8.2 kmh 29.80 in1009.1 mb 0.00 in0.0 mm 0.00 in/hr0.0 mm/hr 0.00 in0.0 mm
11:09 AM 83.5°F28.6°C 67.1°F19.5°C 58% 2.5 mph WSW4.0 kmh WSW 5.4 mph8.7 kmh 29.81 in1009.5 mb 0.00 in0.0 mm 0.00 in/hr0.0 mm/hr 0.00 in0.0 mm
11:04 AM 83.3°F28.5°C 67.0°F19.4°C 58% 3.0 mph NW4.8 kmh NW 5.4 mph8.7 kmh 29.81 in1009.5 mb 0.00 in0.0 mm 0.00 in/hr0.0 mm/hr 0.00 in0.0 mm
10:59 AM 83.5°F28.6°C 67.1°F19.5°C 58% 2.6 mph WNW4.2 kmh WNW 3.8 mph6.1 kmh 29.81 in1009.5 mb 0.00 in0.0 mm 0.00 in/hr0.0 mm/hr 0.00 in0.0 mm
10:54 AM 83.5°F28.6°C 68.2°F20.1°C 60% 2.0 mph NW3.2 kmh NW 3.1 mph5.0 kmh 29.81 in1009.5 mb 0.00 in0.0 mm 0.00 in/hr0.0 mm/hr 0.00 in0.0 mm
10:49 AM 83.2°F28.4°C 67.3°F19.6°C 59% 1.4 mph ENE2.3 kmh ENE 4.0 mph6.4 kmh 29.80 in1009.1 mb 0.00 in0.0 mm 0.00 in/hr0.0 mm/hr 0.00 in0.0 mm
10:44 AM 83.0°F28.3°C 66.6°F19.2°C 58% 2.3 mph SSW3.7 kmh SSW 4.0 mph6.4 kmh 29.80 in1009.1 mb 0.00 in0.0 mm 0.00 in/hr0.0 mm/hr 0.00 in0.0 mm
10:39 AM 83.0°F28.3°C 67.1°F19.5°C 59% 2.0 mph N3.2 kmh N 3.4 mph5.5 kmh 29.81 in1009.5 mb 0.00 in0.0 mm 0.00 in/hr0.0 mm/hr 0.00 in0.0 mm
10:34 AM 82.1°F27.8°C 67.2°F19.6°C 61% 1.5 mph NW2.4 kmh NW 4.3 mph6.9 kmh 29.80 in1009.1 mb 0.00 in0.0 mm 0.00 in/hr0.0 mm/hr 0.00 in0.0 mm
10:29 AM 81.7°F27.6°C 66.5°F19.2°C 60% 2.7 mph NNW4.3 kmh NNW 4.3 mph6.9 kmh 29.80 in1009.1 mb 0.00 in0.0 mm 0.00 in/hr0.0 mm/hr 0.00 in0.0 mm
10:24 AM 81.4°F27.4°C 66.2°F19.0°C 60% 1.8 mph NE2.9 kmh NE 5.4 mph8.7 kmh 29.80 in1009.1 mb 0.00 in0.0 mm 0.00 in/hr0.0 mm/hr 0.00 in0.0 mm
10:19 AM 80.6°F27.0°C 66.9°F19.4°C 63% 0.9 mph E1.4 kmh E 7.6 mph12.2 kmh 29.79 in1008.8 mb 0.00 in0.0 mm 0.00 in/hr0.0 mm/hr 0.00 in0.0 mm
10:14 AM 80.3°F26.8°C 66.1°F18.9°C 62% 3.7 mph W6.0 kmh W 7.6 mph12.2 kmh 29.80 in1009.1 mb 0.00 in0.0 mm 0.00 in/hr0.0 mm/hr 0.00 in0.0 mm
10:09 AM 80.3°F26.8°C 66.5°F19.2°C 63% 2.3 mph N3.7 kmh N 5.6 mph9.0 kmh 29.80 in1009.1 mb 0.00 in0.0 mm 0.00 in/hr0.0 mm/hr 0.00 in0.0 mm
10:04 AM 79.9°F26.6°C 66.3°F19.1°C 63% 2.9 mph WSW4.7 kmh WSW 5.6 mph9.0 kmh 29.80 in1009.1 mb 0.00 in0.0 mm 0.00 in/hr0.0 mm/hr 0.00 in0.0 mm
09:59 AM 79.4°F26.3°C 66.2°F19.0°C 64% 2.5 mph WSW4.0 kmh WSW 5.8 mph9.3 kmh 29.80 in1009.1 mb 0.00 in0.0 mm 0.00 in/hr0.0 mm/hr 0.00 in0.0 mm
09:54 AM 79.0°F26.1°C 65.3°F18.5°C 63% 3.8 mph SW6.1 kmh SW 5.8 mph9.3 kmh 29.81 in1009.5 mb 0.00 in0.0 mm 0.00 in/hr0.0 mm/hr 0.00 in0.0 mm
09:49 AM 78.8°F26.0°C 66.1°F18.9°C 65% 1.9 mph SW3.1 kmh SW 6.5 mph10.5 kmh 29.81 in1009.5 mb 0.00 in0.0 mm 0.00 in/hr0.0 mm/hr 0.00 in0.0 mm
09:44 AM 78.5°F25.8°C 65.7°F18.7°C 65% 2.8 mph NNE4.5 kmh NNE 6.5 mph10.5 kmh 29.81 in1009.5 mb 0.00 in0.0 mm 0.00 in/hr0.0 mm/hr 0.00 in0.0 mm
09:39 AM 78.1°F25.6°C 65.8°F18.8°C 66% 2.2 mph SW3.5 kmh SW 5.8 mph9.3 kmh 29.81 in1009.5 mb 0.00 in0.0 mm 0.00 in/hr0.0 mm/hr 0.00 in0.0 mm
09:34 AM 78.1°F25.6°C 65.8°F18.8°C 66% 2.2 mph NW3.5 kmh NW 5.8 mph9.3 kmh 29.81 in1009.5 mb 0.00 in0.0 mm 0.00 in/hr0.0 mm/hr 0.00 in0.0 mm
09:29 AM 78.1°F25.6°C 65.8°F18.8°C 66% 3.0 mph NW4.8 kmh NW 5.4 mph8.7 kmh 29.81 in1009.5 mb 0.00 in0.0 mm 0.00 in/hr0.0 mm/hr 0.00 in0.0 mm
09:24 AM 77.8°F25.4°C 66.3°F19.1°C 68% 2.4 mph W3.9 kmh W 4.9 mph7.9 kmh 29.81 in1009.5 mb 0.00 in0.0 mm 0.00 in/hr0.0 mm/hr 0.00 in0.0 mm
09:19 AM 77.8°F25.4°C 66.8°F19.3°C 69% 2.9 mph WSW4.7 kmh WSW 4.7 mph7.6 kmh 29.81 in1009.5 mb 0.00 in0.0 mm 0.00 in/hr0.0 mm/hr 0.00 in0.0 mm
02:25 AM 63.0°F17.2°C 59.8°F15.4°C 89% 1.0 mph S1.6 kmh S 2.5 mph4.0 kmh 29.76 in1007.8 mb 0.00 in0.0 mm 0.00 in/hr0.0 mm/hr 0.00 in0.0 mm
02:20 AM 63.2°F17.3°C 59.9°F15.5°C 89% 1.3 mph SW2.1 kmh SW 2.5 mph4.0 kmh 29.76 in1007.8 mb 0.00 in0.0 mm 0.00 in/hr0.0 mm/hr 0.00 in0.0 mm
02:15 AM 63.2°F17.3°C 59.9°F15.5°C 89% 1.1 mph SW1.8 kmh SW 2.5 mph4.0 kmh 29.76 in1007.8 mb 0.00 in0.0 mm 0.00 in/hr0.0 mm/hr 0.00 in0.0 mm
02:10 AM 63.2°F17.3°C 59.9°F15.5°C 89% 1.3 mph WNW2.1 kmh WNW 2.5 mph4.0 kmh 29.76 in1007.8 mb 0.00 in0.0 mm 0.00 in/hr0.0 mm/hr 0.00 in0.0 mm
02:05 AM 63.2°F17.3°C 59.9°F15.5°C 89% 1.7 mph WSW2.7 kmh WSW 2.5 mph4.0 kmh 29.76 in1007.8 mb 0.00 in0.0 mm 0.00 in/hr0.0 mm/hr 0.00 in0.0 mm
02:00 AM 63.2°F17.3°C 59.6°F15.3°C 88% 1.1 mph WSW1.8 kmh WSW 3.6 mph5.8 kmh 29.75 in1007.5 mb 0.00 in0.0 mm 0.00 in/hr0.0 mm/hr 0.00 in0.0 mm
01:55 AM 63.4°F17.4°C 60.1°F15.6°C 89% 1.7 mph WSW2.7 kmh WSW 3.6 mph5.8 kmh 29.75 in1007.5 mb 0.00 in0.0 mm 0.00 in/hr0.0 mm/hr 0.00 in0.0 mm
01:50 AM 63.4°F17.4°C 59.8°F15.4°C 88% 1.5 mph W2.4 kmh W 2.7 mph4.3 kmh 29.75 in1007.5 mb 0.00 in0.0 mm 0.00 in/hr0.0 mm/hr 0.00 in0.0 mm
01:45 AM 63.4°F17.4°C 60.1°F15.6°C 89% 1.2 mph NW1.9 kmh NW 2.7 mph4.3 kmh 29.76 in1007.8 mb 0.00 in0.0 mm 0.00 in/hr0.0 mm/hr 0.00 in0.0 mm
01:40 AM 63.4°F17.4°C 59.8°F15.4°C 88% 0.7 mph WSW1.1 kmh WSW 2.2 mph3.5 kmh 29.76 in1007.8 mb 0.00 in0.0 mm 0.00 in/hr0.0 mm/hr 0.00 in0.0 mm
01:35 AM 63.4°F17.4°C 59.8°F15.4°C 88% 1.2 mph NW1.9 kmh NW 2.5 mph4.0 kmh 29.76 in1007.8 mb 0.00 in0.0 mm 0.00 in/hr0.0 mm/hr 0.00 in0.0 mm
01:30 AM 63.4°F17.4°C 59.8°F15.4°C 88% 0.9 mph S1.4 kmh S 2.5 mph4.0 kmh 29.76 in1007.8 mb 0.00 in0.0 mm 0.00 in/hr0.0 mm/hr 0.00 in0.0 mm
01:25 AM 63.4°F17.4°C 60.1°F15.6°C 89% 1.2 mph W1.9 kmh W 2.5 mph4.0 kmh 29.76 in1007.8 mb 0.00 in0.0 mm 0.00 in/hr0.0 mm/hr 0.00 in0.0 mm
01:20 AM 63.4°F17.4°C 59.8°F15.4°C 88% 1.2 mph SE1.9 kmh SE 1.8 mph2.9 kmh 29.76 in1007.8 mb 0.00 in0.0 mm 0.00 in/hr0.0 mm/hr 0.00 in0.0 mm
01:15 AM 63.4°F17.4°C 59.5°F15.3°C 87% 0.4 mph NW0.6 kmh NW 1.8 mph2.9 kmh 29.76 in1007.8 mb 0.00 in0.0 mm 0.00 in/hr0.0 mm/hr 0.00 in0.0 mm
01:10 AM 63.5°F17.5°C 59.9°F15.5°C 88% 0.4 mph NE0.6 kmh NE 3.1 mph5.0 kmh 29.76 in1007.8 mb 0.00 in0.0 mm 0.00 in/hr0.0 mm/hr 0.00 in0.0 mm
01:05 AM 63.5°F17.5°C 59.9°F15.5°C 88% 0.7 mph WSW1.1 kmh WSW 3.1 mph5.0 kmh 29.76 in1007.8 mb 0.00 in0.0 mm 0.00 in/hr0.0 mm/hr 0.00 in0.0 mm
01:00 AM 63.7°F17.6°C 60.1°F15.6°C 88% 1.2 mph WNW1.9 kmh WNW 5.1 mph8.2 kmh 29.76 in1007.8 mb 0.00 in0.0 mm 0.00 in/hr0.0 mm/hr 0.00 in0.0 mm
12:55 AM 63.7°F17.6°C 59.9°F15.5°C 87% 1.5 mph W2.4 kmh W 5.1 mph8.2 kmh 29.76 in1007.8 mb 0.00 in0.0 mm 0.00 in/hr0.0 mm/hr 0.00 in0.0 mm
12:50 AM 63.7°F17.6°C 60.1°F15.6°C 88% 1.7 mph NW2.7 kmh NW 3.1 mph5.0 kmh 29.76 in1007.8 mb 0.00 in0.0 mm 0.00 in/hr0.0 mm/hr 0.00 in0.0 mm
12:45 AM 63.7°F17.6°C 60.1°F15.6°C 88% 1.6 mph SSE2.6 kmh SSE 3.1 mph5.0 kmh 29.76 in1007.8 mb 0.00 in0.0 mm 0.00 in/hr0.0 mm/hr 0.00 in0.0 mm
12:39 AM 63.7°F17.6°C 59.9°F15.5°C 87% 1.5 mph SW2.4 kmh SW 2.9 mph4.7 kmh 29.76 in1007.8 mb 0.00 in0.0 mm 0.00 in/hr0.0 mm/hr 0.00 in0.0 mm
12:34 AM 63.7°F17.6°C 59.9°F15.5°C 87% 0.7 mph NW1.1 kmh NW 2.9 mph4.7 kmh 29.76 in1007.8 mb 0.00 in0.0 mm 0.00 in/hr0.0 mm/hr 0.00 in0.0 mm
12:29 AM 63.7°F17.6°C 59.9°F15.5°C 87% 1.0 mph W1.6 kmh W 2.5 mph4.0 kmh 29.76 in1007.8 mb 0.00 in0.0 mm 0.00 in/hr0.0 mm/hr 0.00 in0.0 mm
12:24 AM 63.7°F17.6°C 59.9°F15.5°C 87% 1.2 mph WSW1.9 kmh WSW 2.0 mph3.2 kmh 29.76 in1007.8 mb 0.00 in0.0 mm 0.00 in/hr0.0 mm/hr 0.00 in0.0 mm
12:19 AM 63.7°F17.6°C 59.9°F15.5°C 87% 0.9 mph W1.4 kmh W 2.7 mph4.3 kmh 29.76 in1007.8 mb 0.00 in0.0 mm 0.00 in/hr0.0 mm/hr 0.00 in0.0 mm
12:14 AM 63.7°F17.6°C 59.9°F15.5°C 87% 1.1 mph S1.8 kmh S 2.9 mph4.7 kmh 29.77 in1008.1 mb 0.00 in0.0 mm 0.00 in/hr0.0 mm/hr 0.00 in0.0 mm
12:09 AM 63.7°F17.6°C 59.9°F15.5°C 87% 1.1 mph SW1.8 kmh SW 2.9 mph4.7 kmh 29.77 in1008.1 mb 0.00 in0.0 mm 0.00 in/hr0.0 mm/hr 0.00 in0.0 mm
12:04 AM 63.9°F17.7°C 59.7°F15.4°C 86% 0.9 mph NW1.4 kmh NW 2.9 mph4.7 kmh 29.77 in1008.1 mb 0.00 in0.0 mm 0.00 in/hr0.0 mm/hr 0.00 in0.0 mm